»·PEaware :: N62406 KSNA-KSBD

N62406 :: KSNA-KSBD

FLIGHT INFORMATION

Flight Status: Arrived
Operator: Privately registered:
United States
More flights under this callsign
Pilot: Jair P. (32054)
Aircraft: CESSNA 172 SKYHAWK
(C172)
More flights by this aircraft type
Origin: KSNA John Wayne-Orange Co
United States
Destination: KSBD San Bernardino Intl
United States
More flights between these airports :: More routes between these airports
Route: SLI V8 PDZ
File this flight plan on PilotEdge
Remarks:
Altitude:
(Current/Filed)
5,000ft
Speed:
(Current/Filed)
110kts
Departed: 30-Nov-20 03:53 PM
Arrived: 30-Nov-20 04:27 PM
Distance/Time
Traveled:
41nm/0:34
Distance/Time
To Go:
Arrived

Flight Plot

Page will automatically refresh every two minutes.


Map Options




Map Legend


Flown Route
Filed Route
Departure Airport
Arrival Airport
Navaid (VOR, NDB)
Fix

Horizontal Profiles

Position Reports

Time Latitude Longitude Heading Altitude Ground
Speed
30-Nov-20 15:33 33.671381 -117.867596 63 52ft 0kts
30-Nov-20 15:34 33.671381 -117.867596 63 52ft 0kts
30-Nov-20 15:35 33.671381 -117.867596 63 52ft 0kts
30-Nov-20 15:36 33.671381 -117.867597 63 52ft 0kts
30-Nov-20 15:37 33.671381 -117.867597 63 52ft 0kts
30-Nov-20 15:38 33.671381 -117.867597 63 52ft 0kts
30-Nov-20 15:39 33.671381 -117.867597 63 52ft 0kts
30-Nov-20 15:40 33.671381 -117.867597 63 52ft 0kts
30-Nov-20 15:41 33.671381 -117.867597 63 52ft 0kts
30-Nov-20 15:42 33.671381 -117.867597 63 52ft 0kts
30-Nov-20 15:43 33.671381 -117.867597 63 52ft 0kts
30-Nov-20 15:44 33.671381 -117.867597 63 52ft 0kts
30-Nov-20 15:45 33.671381 -117.867597 63 52ft 0kts
30-Nov-20 15:46 33.671381 -117.867597 63 52ft 0kts
30-Nov-20 15:47 33.671381 -117.867597 63 52ft 0kts
30-Nov-20 15:48 33.673420 -117.866989 9 57ft 12kts
30-Nov-20 15:49 33.677713 -117.864805 27 49ft 29kts
30-Nov-20 15:50 33.679965 -117.863628 298 45ft 0kts
30-Nov-20 15:51 33.680156 -117.864076 275 45ft 7kts
30-Nov-20 15:52 33.669786 -117.872338 240 320ft 78kts
30-Nov-20 15:53 33.660288 -117.900737 248 858ft 101kts
30-Nov-20 15:54 33.648839 -117.931299 242 1559ft 100kts
30-Nov-20 15:55 33.650527 -117.958977 329 2264ft 95kts
30-Nov-20 15:56 33.674439 -117.970930 342 2962ft 91kts
30-Nov-20 15:57 33.698011 -117.980405 342 3662ft 87kts
30-Nov-20 15:58 33.720271 -117.989171 342 4361ft 80kts
30-Nov-20 15:59 33.744335 -117.992159 15 4865ft 95kts
30-Nov-20 16:00 33.769398 -117.980499 22 5100ft 114kts
30-Nov-20 16:01 33.794267 -117.963609 56 5115ft 122kts
30-Nov-20 16:02 33.801897 -117.924583 72 5117ft 124kts
30-Nov-20 16:03 33.813797 -117.887171 67 5118ft 124kts
30-Nov-20 16:04 33.825149 -117.847946 68 5118ft 124kts
30-Nov-20 16:05 33.836598 -117.808877 69 5120ft 124kts
30-Nov-20 16:06 33.848176 -117.769434 69 5124ft 124kts
30-Nov-20 16:07 33.859685 -117.730203 69 5137ft 124kts
30-Nov-20 16:09 33.871230 -117.690834 69 5140ft 124kts
30-Nov-20 16:10 33.882726 -117.651607 69 5138ft 123kts
30-Nov-20 16:11 33.894095 -117.612781 69 5138ft 123kts
30-Nov-20 16:12 33.905461 -117.573974 69 5137ft 123kts
30-Nov-20 16:13 33.916346 -117.536557 69 5138ft 123kts
30-Nov-20 16:14 33.933249 -117.501377 53 5138ft 122kts
30-Nov-20 16:15 33.952836 -117.468309 53 5138ft 122kts
30-Nov-20 16:16 33.972714 -117.434932 53 5137ft 122kts
30-Nov-20 16:17 33.992638 -117.401510 53 5069ft 129kts
30-Nov-20 16:18 34.012722 -117.367192 54 4425ft 113kts
30-Nov-20 16:19 34.029196 -117.335764 59 3805ft 110kts
30-Nov-20 16:20 34.044897 -117.305114 56 2876ft 107kts
30-Nov-20 16:21 34.061054 -117.276985 52 2032ft 95kts
30-Nov-20 16:22 34.075957 -117.255323 58 1977ft 78kts
30-Nov-20 16:23 34.082555 -117.229781 77 2104ft 82kts
30-Nov-20 16:24 34.090168 -117.203570 68 2106ft 82kts
30-Nov-20 16:24 34.103347 -117.197465 300 1919ft 66kts
30-Nov-20 16:26 34.099565 -117.221191 244 1166ft 53kts
30-Nov-20 16:26 34.099302 -117.225418 285 1149ft 0kts
30-Nov-20 16:27 34.100117 -117.225095 72 1152ft 9kts
30-Nov-20 16:29 34.101399 -117.224571 1 1154ft 0kts

Navigation Log

Ident Type
Flight plan parsing failed, navigation log unavailable